sensor_id;sensor_type;location;lat;lon;timestamp;temperature;humidity
74488;DHT22;63019;51.080;13.642;2023-02-28T00:00:13;0.20;99.90
74488;DHT22;63019;51.080;13.642;2023-02-28T00:01:17;0.20;99.90
74488;DHT22;63019;51.080;13.642;2023-02-28T00:02:21;0.20;99.90
74488;DHT22;63019;51.080;13.642;2023-02-28T00:03:23;0.20;99.90
74488;DHT22;63019;51.080;13.642;2023-02-28T00:04:26;0.20;99.90
74488;DHT22;63019;51.080;13.642;2023-02-28T00:05:32;0.20;99.90
74488;DHT22;63019;51.080;13.642;2023-02-28T00:06:35;0.20;99.90
74488;DHT22;63019;51.080;13.642;2023-02-28T00:07:38;0.20;99.90
74488;DHT22;63019;51.080;13.642;2023-02-28T00:08:40;0.20;99.90
74488;DHT22;63019;51.080;13.642;2023-02-28T00:09:43;0.20;99.90
74488;DHT22;63019;51.080;13.642;2023-02-28T00:10:45;0.20;99.90
74488;DHT22;63019;51.080;13.642;2023-02-28T00:11:47;0.20;99.90
74488;DHT22;63019;51.080;13.642;2023-02-28T00:12:51;0.30;99.90
74488;DHT22;63019;51.080;13.642;2023-02-28T00:13:54;0.30;99.90
74488;DHT22;63019;51.080;13.642;2023-02-28T00:14:57;0.30;99.90
74488;DHT22;63019;51.080;13.642;2023-02-28T00:16:04;0.30;99.90
74488;DHT22;63019;51.080;13.642;2023-02-28T00:17:07;0.30;99.90
74488;DHT22;63019;51.080;13.642;2023-02-28T00:18:09;0.30;99.90
74488;DHT22;63019;51.080;13.642;2023-02-28T00:19:12;0.30;99.90
74488;DHT22;63019;51.080;13.642;2023-02-28T00:20:16;0.30;99.90
74488;DHT22;63019;51.080;13.642;2023-02-28T00:21:19;0.30;99.90
74488;DHT22;63019;51.080;13.642;2023-02-28T00:22:23;0.30;99.90
74488;DHT22;63019;51.080;13.642;2023-02-28T00:23:26;0.30;99.90
74488;DHT22;63019;51.080;13.642;2023-02-28T00:24:29;0.30;99.90
74488;DHT22;63019;51.080;13.642;2023-02-28T00:25:31;0.30;99.90
74488;DHT22;63019;51.080;13.642;2023-02-28T00:26:34;0.30;99.90
74488;DHT22;63019;51.080;13.642;2023-02-28T00:27:37;0.30;99.90
74488;DHT22;63019;51.080;13.642;2023-02-28T00:28:40;0.30;99.90
74488;DHT22;63019;51.080;13.642;2023-02-28T00:29:42;0.30;99.90
74488;DHT22;63019;51.080;13.642;2023-02-28T00:30:45;0.30;99.90
74488;DHT22;63019;51.080;13.642;2023-02-28T00:31:47;0.30;99.90
74488;DHT22;63019;51.080;13.642;2023-02-28T00:32:50;0.30;99.90
74488;DHT22;63019;51.080;13.642;2023-02-28T00:33:53;0.30;99.90
74488;DHT22;63019;51.080;13.642;2023-02-28T00:34:56;0.30;99.90
74488;DHT22;63019;51.080;13.642;2023-02-28T00:36:07;0.30;99.90
74488;DHT22;63019;51.080;13.642;2023-02-28T00:37:11;0.40;99.90
74488;DHT22;63019;51.080;13.642;2023-02-28T00:38:16;0.40;99.90
74488;DHT22;63019;51.080;13.642;2023-02-28T00:39:19;0.40;99.90
74488;DHT22;63019;51.080;13.642;2023-02-28T00:40:21;0.40;99.90
74488;DHT22;63019;51.080;13.642;2023-02-28T00:41:25;0.40;99.90
74488;DHT22;63019;51.080;13.642;2023-02-28T00:42:28;0.40;99.90
74488;DHT22;63019;51.080;13.642;2023-02-28T00:43:32;0.40;99.90
74488;DHT22;63019;51.080;13.642;2023-02-28T00:44:34;0.40;99.90
74488;DHT22;63019;51.080;13.642;2023-02-28T00:45:39;0.40;99.90
74488;DHT22;63019;51.080;13.642;2023-02-28T00:46:42;0.40;99.90
74488;DHT22;63019;51.080;13.642;2023-02-28T00:47:44;0.40;99.90
74488;DHT22;63019;51.080;13.642;2023-02-28T00:48:49;0.40;99.90
74488;DHT22;63019;51.080;13.642;2023-02-28T00:49:52;0.40;99.90
74488;DHT22;63019;51.080;13.642;2023-02-28T00:50:55;0.40;99.90
74488;DHT22;63019;51.080;13.642;2023-02-28T00:51:59;0.30;99.90
74488;DHT22;63019;51.080;13.642;2023-02-28T00:53:02;0.20;99.90
74488;DHT22;63019;51.080;13.642;2023-02-28T00:54:04;0.10;99.90
74488;DHT22;63019;51.080;13.642;2023-02-28T00:55:07;0.10;99.90
74488;DHT22;63019;51.080;13.642;2023-02-28T00:56:09;0.10;99.90
74488;DHT22;63019;51.080;13.642;2023-02-28T00:57:12;0.10;99.90
74488;DHT22;63019;51.080;13.642;2023-02-28T00:58:14;0.10;99.90
74488;DHT22;63019;51.080;13.642;2023-02-28T00:59:18;0.00;99.90
74488;DHT22;63019;51.080;13.642;2023-02-28T01:00:21;0.10;99.90
74488;DHT22;63019;51.080;13.642;2023-02-28T01:01:23;0.10;99.90
74488;DHT22;63019;51.080;13.642;2023-02-28T01:02:26;0.10;99.90
74488;DHT22;63019;51.080;13.642;2023-02-28T01:03:29;0.10;99.90
74488;DHT22;63019;51.080;13.642;2023-02-28T01:04:31;0.10;99.90
74488;DHT22;63019;51.080;13.642;2023-02-28T01:05:34;0.00;99.90
74488;DHT22;63019;51.080;13.642;2023-02-28T01:06:37;0.00;99.90
74488;DHT22;63019;51.080;13.642;2023-02-28T01:07:39;-0.10;99.90
74488;DHT22;63019;51.080;13.642;2023-02-28T01:08:41;-0.10;99.90
74488;DHT22;63019;51.080;13.642;2023-02-28T01:09:45;-0.10;99.90
74488;DHT22;63019;51.080;13.642;2023-02-28T01:10:48;0.00;99.90
74488;DHT22;63019;51.080;13.642;2023-02-28T01:11:51;-0.10;99.90
74488;DHT22;63019;51.080;13.642;2023-02-28T01:12:53;-0.10;99.90
74488;DHT22;63019;51.080;13.642;2023-02-28T01:13:56;-0.10;99.90
74488;DHT22;63019;51.080;13.642;2023-02-28T01:14:58;-0.10;99.90
74488;DHT22;63019;51.080;13.642;2023-02-28T01:16:01;-0.10;99.90
74488;DHT22;63019;51.080;13.642;2023-02-28T01:17:04;-0.10;99.90
74488;DHT22;63019;51.080;13.642;2023-02-28T01:18:07;-0.10;99.90
74488;DHT22;63019;51.080;13.642;2023-02-28T01:19:10;-0.10;99.90
74488;DHT22;63019;51.080;13.642;2023-02-28T01:20:12;-0.20;99.90
74488;DHT22;63019;51.080;13.642;2023-02-28T01:21:17;-0.10;99.90
74488;DHT22;63019;51.080;13.642;2023-02-28T01:22:20;-0.10;99.90
74488;DHT22;63019;51.080;13.642;2023-02-28T01:23:24;-0.10;99.90
74488;DHT22;63019;51.080;13.642;2023-02-28T01:24:26;-0.10;99.90
74488;DHT22;63019;51.080;13.642;2023-02-28T01:25:29;-0.10;99.90
74488;DHT22;63019;51.080;13.642;2023-02-28T01:26:32;-0.10;99.90
74488;DHT22;63019;51.080;13.642;2023-02-28T01:27:35;-0.10;99.90
74488;DHT22;63019;51.080;13.642;2023-02-28T01:28:37;-0.10;99.90
74488;DHT22;63019;51.080;13.642;2023-02-28T01:29:40;-0.10;99.90
74488;DHT22;63019;51.080;13.642;2023-02-28T01:30:46;-0.10;99.90
74488;DHT22;63019;51.080;13.642;2023-02-28T01:31:49;-0.10;99.90
74488;DHT22;63019;51.080;13.642;2023-02-28T01:32:52;-0.20;99.90
74488;DHT22;63019;51.080;13.642;2023-02-28T01:33:55;-0.20;99.90
74488;DHT22;63019;51.080;13.642;2023-02-28T01:34:57;-0.20;99.90
74488;DHT22;63019;51.080;13.642;2023-02-28T01:36:12;-0.20;99.90
74488;DHT22;63019;51.080;13.642;2023-02-28T01:37:16;-0.20;99.90
74488;DHT22;63019;51.080;13.642;2023-02-28T01:38:19;-0.20;99.90
74488;DHT22;63019;51.080;13.642;2023-02-28T01:39:25;-0.20;99.90
74488;DHT22;63019;51.080;13.642;2023-02-28T01:40:28;-0.20;99.90
74488;DHT22;63019;51.080;13.642;2023-02-28T01:41:32;-0.20;99.90
74488;DHT22;63019;51.080;13.642;2023-02-28T01:42:35;-0.20;99.90
74488;DHT22;63019;51.080;13.642;2023-02-28T01:46:22;-0.30;99.90
74488;DHT22;63019;51.080;13.642;2023-02-28T01:47:31;-0.30;99.90
74488;DHT22;63019;51.080;13.642;2023-02-28T01:48:37;-0.30;99.90
74488;DHT22;63019;51.080;13.642;2023-02-28T01:49:40;-0.30;99.90
74488;DHT22;63019;51.080;13.642;2023-02-28T01:50:44;-0.30;99.90
74488;DHT22;63019;51.080;13.642;2023-02-28T01:51:50;-0.20;99.90
74488;DHT22;63019;51.080;13.642;2023-02-28T01:52:56;-0.20;99.90
74488;DHT22;63019;51.080;13.642;2023-02-28T01:54:09;-0.10;99.90
74488;DHT22;63019;51.080;13.642;2023-02-28T01:55:18;-0.20;99.90
74488;DHT22;63019;51.080;13.642;2023-02-28T01:56:26;-0.20;99.90
74488;DHT22;63019;51.080;13.642;2023-02-28T01:57:34;-0.20;99.90
74488;DHT22;63019;51.080;13.642;2023-02-28T01:58:40;-0.30;99.90
74488;DHT22;63019;51.080;13.642;2023-02-28T01:59:56;-0.30;99.90
74488;DHT22;63019;51.080;13.642;2023-02-28T02:01:00;-0.40;99.90
74488;DHT22;63019;51.080;13.642;2023-02-28T02:02:05;-0.40;99.90
74488;DHT22;63019;51.080;13.642;2023-02-28T02:03:11;-0.30;99.90
74488;DHT22;63019;51.080;13.642;2023-02-28T02:04:18;-0.30;99.90
74488;DHT22;63019;51.080;13.642;2023-02-28T02:05:25;-0.30;99.90
74488;DHT22;63019;51.080;13.642;2023-02-28T02:06:39;-0.30;99.90
74488;DHT22;63019;51.080;13.642;2023-02-28T02:07:45;-0.20;99.90
74488;DHT22;63019;51.080;13.642;2023-02-28T02:08:48;-0.20;99.90
74488;DHT22;63019;51.080;13.642;2023-02-28T02:10:18;-0.30;99.90
74488;DHT22;63019;51.080;13.642;2023-02-28T02:11:22;-0.30;99.90
74488;DHT22;63019;51.080;13.642;2023-02-28T02:13:57;-0.30;99.90
74488;DHT22;63019;51.080;13.642;2023-02-28T02:17:10;-0.30;99.90
74488;DHT22;63019;51.080;13.642;2023-02-28T02:18:26;-0.30;99.90
74488;DHT22;63019;51.080;13.642;2023-02-28T02:21:06;-0.40;99.90
74488;DHT22;63019;51.080;13.642;2023-02-28T02:22:34;-0.40;99.90
74488;DHT22;63019;51.080;13.642;2023-02-28T02:26:36;-0.20;99.90
74488;DHT22;63019;51.080;13.642;2023-02-28T02:27:59;-0.30;99.90
74488;DHT22;63019;51.080;13.642;2023-02-28T02:35:01;-0.30;99.90
74488;DHT22;63019;51.080;13.642;2023-02-28T02:36:19;-0.40;99.90
74488;DHT22;63019;51.080;13.642;2023-02-28T02:38:58;-0.40;99.90
74488;DHT22;63019;51.080;13.642;2023-02-28T02:40:07;-0.40;99.90
74488;DHT22;63019;51.080;13.642;2023-02-28T02:41:23;-0.40;99.90
74488;DHT22;63019;51.080;13.642;2023-02-28T02:43:50;-0.40;99.90
74488;DHT22;63019;51.080;13.642;2023-02-28T02:45:00;-0.40;99.90
74488;DHT22;63019;51.080;13.642;2023-02-28T02:46:13;-0.40;99.90
74488;DHT22;63019;51.080;13.642;2023-02-28T02:47:20;-0.40;99.90
74488;DHT22;63019;51.080;13.642;2023-02-28T02:48:29;-0.40;99.90
74488;DHT22;63019;51.080;13.642;2023-02-28T02:49:36;-0.50;99.90
74488;DHT22;63019;51.080;13.642;2023-02-28T02:51:06;-0.50;99.90
74488;DHT22;63019;51.080;13.642;2023-02-28T02:52:20;-0.50;99.90
74488;DHT22;63019;51.080;13.642;2023-02-28T02:53:34;-0.50;99.90
74488;DHT22;63019;51.080;13.642;2023-02-28T02:54:41;-0.50;99.90
74488;DHT22;63019;51.080;13.642;2023-02-28T02:55:48;-0.40;99.90
74488;DHT22;63019;51.080;13.642;2023-02-28T02:56:57;-0.40;99.90
74488;DHT22;63019;51.080;13.642;2023-02-28T02:58:09;-0.40;99.90
74488;DHT22;63019;51.080;13.642;2023-02-28T02:59:17;-0.40;99.90
74488;DHT22;63019;51.080;13.642;2023-02-28T03:00:30;-0.30;99.90
74488;DHT22;63019;51.080;13.642;2023-02-28T03:01:36;-0.30;99.90
74488;DHT22;63019;51.080;13.642;2023-02-28T03:02:40;-0.30;99.90
74488;DHT22;63019;51.080;13.642;2023-02-28T03:03:43;-0.30;99.90
74488;DHT22;63019;51.080;13.642;2023-02-28T03:04:51;-0.30;99.90
74488;DHT22;63019;51.080;13.642;2023-02-28T03:06:01;-0.30;99.90
74488;DHT22;63019;51.080;13.642;2023-02-28T03:07:04;-0.40;99.90
74488;DHT22;63019;51.080;13.642;2023-02-28T03:08:06;-0.40;99.90
74488;DHT22;63019;51.080;13.642;2023-02-28T03:09:09;-0.50;99.90
74488;DHT22;63019;51.080;13.642;2023-02-28T03:10:39;-0.50;99.90
74488;DHT22;63019;51.080;13.642;2023-02-28T03:11:42;-0.50;99.90
74488;DHT22;63019;51.080;13.642;2023-02-28T03:12:52;-0.40;99.90
74488;DHT22;63019;51.080;13.642;2023-02-28T03:14:18;-0.50;99.90
74488;DHT22;63019;51.080;13.642;2023-02-28T03:15:34;-0.40;99.90
74488;DHT22;63019;51.080;13.642;2023-02-28T03:18:03;-0.50;99.90
74488;DHT22;63019;51.080;13.642;2023-02-28T03:25:27;-0.40;99.90
74488;DHT22;63019;51.080;13.642;2023-02-28T03:26:31;-0.40;99.90
74488;DHT22;63019;51.080;13.642;2023-02-28T03:27:37;-0.40;99.90
74488;DHT22;63019;51.080;13.642;2023-02-28T03:30:10;-0.50;99.90
74488;DHT22;63019;51.080;13.642;2023-02-28T03:31:21;-0.50;99.90
74488;DHT22;63019;51.080;13.642;2023-02-28T03:32:57;-0.50;99.90
74488;DHT22;63019;51.080;13.642;2023-02-28T03:34:10;-0.60;99.90
74488;DHT22;63019;51.080;13.642;2023-02-28T03:35:23;-0.60;99.90
74488;DHT22;63019;51.080;13.642;2023-02-28T03:36:30;-0.60;99.90
74488;DHT22;63019;51.080;13.642;2023-02-28T03:37:35;-0.60;99.90
74488;DHT22;63019;51.080;13.642;2023-02-28T03:38:48;-0.60;99.90
74488;DHT22;63019;51.080;13.642;2023-02-28T03:39:57;-0.70;99.90
74488;DHT22;63019;51.080;13.642;2023-02-28T03:42:13;-0.70;99.90
74488;DHT22;63019;51.080;13.642;2023-02-28T03:43:20;-0.70;99.90
74488;DHT22;63019;51.080;13.642;2023-02-28T03:44:37;-0.70;99.90
74488;DHT22;63019;51.080;13.642;2023-02-28T03:45:41;-0.70;99.90
74488;DHT22;63019;51.080;13.642;2023-02-28T03:46:52;-0.80;99.90
74488;DHT22;63019;51.080;13.642;2023-02-28T03:49:36;-0.90;99.90
74488;DHT22;63019;51.080;13.642;2023-02-28T03:50:44;-0.90;99.90
74488;DHT22;63019;51.080;13.642;2023-02-28T03:51:47;-0.90;99.90
74488;DHT22;63019;51.080;13.642;2023-02-28T03:53:00;-1.00;99.90
74488;DHT22;63019;51.080;13.642;2023-02-28T03:54:07;-1.00;99.90
74488;DHT22;63019;51.080;13.642;2023-02-28T03:55:13;-0.90;99.90
74488;DHT22;63019;51.080;13.642;2023-02-28T03:56:40;-0.90;99.90
74488;DHT22;63019;51.080;13.642;2023-02-28T03:57:57;-1.00;99.90
74488;DHT22;63019;51.080;13.642;2023-02-28T03:59:15;-1.00;99.90
74488;DHT22;63019;51.080;13.642;2023-02-28T04:00:33;-1.10;99.90
74488;DHT22;63019;51.080;13.642;2023-02-28T04:01:39;-1.10;99.90
74488;DHT22;63019;51.080;13.642;2023-02-28T04:02:43;-1.10;99.90
74488;DHT22;63019;51.080;13.642;2023-02-28T04:03:45;-1.10;99.90
74488;DHT22;63019;51.080;13.642;2023-02-28T04:04:47;-1.00;99.90
74488;DHT22;63019;51.080;13.642;2023-02-28T04:05:54;-1.10;99.90
74488;DHT22;63019;51.080;13.642;2023-02-28T04:07:05;-1.10;99.90
74488;DHT22;63019;51.080;13.642;2023-02-28T04:08:08;-1.10;99.90
74488;DHT22;63019;51.080;13.642;2023-02-28T04:09:12;-1.10;99.90
74488;DHT22;63019;51.080;13.642;2023-02-28T04:10:13;-1.10;99.90
74488;DHT22;63019;51.080;13.642;2023-02-28T04:11:21;-1.10;99.90
74488;DHT22;63019;51.080;13.642;2023-02-28T04:12:23;-1.10;99.90
74488;DHT22;63019;51.080;13.642;2023-02-28T04:13:25;-1.10;99.90
74488;DHT22;63019;51.080;13.642;2023-02-28T04:14:27;-1.20;99.90
74488;DHT22;63019;51.080;13.642;2023-02-28T04:15:29;-1.20;99.90
74488;DHT22;63019;51.080;13.642;2023-02-28T04:16:32;-1.20;99.90
74488;DHT22;63019;51.080;13.642;2023-02-28T04:17:36;-1.20;99.90
74488;DHT22;63019;51.080;13.642;2023-02-28T04:18:39;-1.20;99.90
74488;DHT22;63019;51.080;13.642;2023-02-28T04:19:41;-1.20;99.90
74488;DHT22;63019;51.080;13.642;2023-02-28T04:20:42;-1.20;99.90
74488;DHT22;63019;51.080;13.642;2023-02-28T04:21:46;-1.30;99.90
74488;DHT22;63019;51.080;13.642;2023-02-28T04:22:48;-1.30;99.90
74488;DHT22;63019;51.080;13.642;2023-02-28T04:23:50;-1.30;99.90
74488;DHT22;63019;51.080;13.642;2023-02-28T04:24:52;-1.30;99.90
74488;DHT22;63019;51.080;13.642;2023-02-28T04:25:55;-1.40;99.90
74488;DHT22;63019;51.080;13.642;2023-02-28T04:26:57;-1.40;99.90
74488;DHT22;63019;51.080;13.642;2023-02-28T04:27:59;-1.40;99.90
74488;DHT22;63019;51.080;13.642;2023-02-28T04:29:03;-1.50;99.90
74488;DHT22;63019;51.080;13.642;2023-02-28T04:30:06;-1.50;99.90
74488;DHT22;63019;51.080;13.642;2023-02-28T04:31:09;-1.50;99.90
74488;DHT22;63019;51.080;13.642;2023-02-28T04:32:11;-1.50;99.90
74488;DHT22;63019;51.080;13.642;2023-02-28T04:33:13;-1.50;99.90
74488;DHT22;63019;51.080;13.642;2023-02-28T04:34:15;-1.60;99.90
74488;DHT22;63019;51.080;13.642;2023-02-28T04:35:17;-1.60;99.90
74488;DHT22;63019;51.080;13.642;2023-02-28T04:36:18;-1.60;99.90
74488;DHT22;63019;51.080;13.642;2023-02-28T04:37:20;-1.60;99.90
74488;DHT22;63019;51.080;13.642;2023-02-28T04:38:22;-1.60;99.90
74488;DHT22;63019;51.080;13.642;2023-02-28T04:39:24;-1.60;99.90
74488;DHT22;63019;51.080;13.642;2023-02-28T04:40:26;-1.60;99.90
74488;DHT22;63019;51.080;13.642;2023-02-28T04:41:28;-1.60;99.90
74488;DHT22;63019;51.080;13.642;2023-02-28T04:42:33;-1.60;99.90
74488;DHT22;63019;51.080;13.642;2023-02-28T04:43:37;-1.70;99.90
74488;DHT22;63019;51.080;13.642;2023-02-28T04:44:39;-1.70;99.90
74488;DHT22;63019;51.080;13.642;2023-02-28T04:45:40;-1.70;99.90
74488;DHT22;63019;51.080;13.642;2023-02-28T04:46:42;-1.70;99.90
74488;DHT22;63019;51.080;13.642;2023-02-28T04:47:44;-1.70;99.90
74488;DHT22;63019;51.080;13.642;2023-02-28T04:48:46;-1.70;99.90
74488;DHT22;63019;51.080;13.642;2023-02-28T04:49:48;-1.70;99.90
74488;DHT22;63019;51.080;13.642;2023-02-28T04:50:50;-1.60;99.90
74488;DHT22;63019;51.080;13.642;2023-02-28T04:51:52;-1.60;99.90
74488;DHT22;63019;51.080;13.642;2023-02-28T04:52:54;-1.60;99.90
74488;DHT22;63019;51.080;13.642;2023-02-28T04:53:56;-1.60;99.90
74488;DHT22;63019;51.080;13.642;2023-02-28T04:54:58;-1.60;99.90
74488;DHT22;63019;51.080;13.642;2023-02-28T04:56:00;-1.60;99.90
74488;DHT22;63019;51.080;13.642;2023-02-28T04:57:02;-1.60;99.90
74488;DHT22;63019;51.080;13.642;2023-02-28T04:58:04;-1.60;99.90
74488;DHT22;63019;51.080;13.642;2023-02-28T04:59:05;-1.70;99.90
74488;DHT22;63019;51.080;13.642;2023-02-28T05:00:08;-1.70;99.90
74488;DHT22;63019;51.080;13.642;2023-02-28T05:01:25;-1.70;99.90
74488;DHT22;63019;51.080;13.642;2023-02-28T05:02:28;-1.70;99.90
74488;DHT22;63019;51.080;13.642;2023-02-28T05:03:30;-1.70;99.90
74488;DHT22;63019;51.080;13.642;2023-02-28T05:04:34;-1.70;99.90
74488;DHT22;63019;51.080;13.642;2023-02-28T05:05:36;-1.80;99.90
74488;DHT22;63019;51.080;13.642;2023-02-28T05:06:38;-1.80;99.90
74488;DHT22;63019;51.080;13.642;2023-02-28T05:07:39;-1.80;99.90
74488;DHT22;63019;51.080;13.642;2023-02-28T05:08:41;-1.90;99.90
74488;DHT22;63019;51.080;13.642;2023-02-28T05:09:43;-1.90;99.90
74488;DHT22;63019;51.080;13.642;2023-02-28T05:10:45;-1.90;99.90
74488;DHT22;63019;51.080;13.642;2023-02-28T05:11:47;-1.90;99.90
74488;DHT22;63019;51.080;13.642;2023-02-28T05:12:48;-1.90;99.90
74488;DHT22;63019;51.080;13.642;2023-02-28T05:13:51;-1.90;99.90
74488;DHT22;63019;51.080;13.642;2023-02-28T05:14:53;-1.90;99.90
74488;DHT22;63019;51.080;13.642;2023-02-28T05:15:55;-1.90;99.90
74488;DHT22;63019;51.080;13.642;2023-02-28T05:16:57;-1.90;99.90
74488;DHT22;63019;51.080;13.642;2023-02-28T05:17:59;-1.90;99.90
74488;DHT22;63019;51.080;13.642;2023-02-28T05:19:01;-2.00;99.90
74488;DHT22;63019;51.080;13.642;2023-02-28T05:20:03;-2.00;99.90
74488;DHT22;63019;51.080;13.642;2023-02-28T05:21:33;-1.90;99.90
74488;DHT22;63019;51.080;13.642;2023-02-28T05:22:35;-2.00;99.90
74488;DHT22;63019;51.080;13.642;2023-02-28T05:23:37;-2.00;99.90
74488;DHT22;63019;51.080;13.642;2023-02-28T05:24:39;-2.00;99.90
74488;DHT22;63019;51.080;13.642;2023-02-28T05:25:40;-2.00;99.90
74488;DHT22;63019;51.080;13.642;2023-02-28T05:26:43;-2.00;99.90
74488;DHT22;63019;51.080;13.642;2023-02-28T05:27:44;-2.00;99.90
74488;DHT22;63019;51.080;13.642;2023-02-28T05:28:46;-2.10;99.90
74488;DHT22;63019;51.080;13.642;2023-02-28T05:29:48;-2.10;99.90
74488;DHT22;63019;51.080;13.642;2023-02-28T05:30:50;-2.20;99.90
74488;DHT22;63019;51.080;13.642;2023-02-28T05:31:51;-2.10;99.90
74488;DHT22;63019;51.080;13.642;2023-02-28T05:32:53;-2.10;99.90
74488;DHT22;63019;51.080;13.642;2023-02-28T05:33:55;-2.10;99.90
74488;DHT22;63019;51.080;13.642;2023-02-28T05:34:57;-2.10;99.90
74488;DHT22;63019;51.080;13.642;2023-02-28T05:35:59;-2.10;99.90
74488;DHT22;63019;51.080;13.642;2023-02-28T05:37:01;-2.10;99.90
74488;DHT22;63019;51.080;13.642;2023-02-28T05:38:02;-2.10;99.90
74488;DHT22;63019;51.080;13.642;2023-02-28T05:39:07;-2.10;99.90
74488;DHT22;63019;51.080;13.642;2023-02-28T05:40:13;-2.10;99.90
74488;DHT22;63019;51.080;13.642;2023-02-28T05:41:18;-2.10;99.90
74488;DHT22;63019;51.080;13.642;2023-02-28T05:42:20;-2.10;99.90
74488;DHT22;63019;51.080;13.642;2023-02-28T05:43:22;-2.10;99.90
74488;DHT22;63019;51.080;13.642;2023-02-28T05:44:24;-2.10;99.90
74488;DHT22;63019;51.080;13.642;2023-02-28T05:45:26;-2.10;99.90
74488;DHT22;63019;51.080;13.642;2023-02-28T05:46:28;-2.20;99.90
74488;DHT22;63019;51.080;13.642;2023-02-28T05:47:30;-2.20;99.90
74488;DHT22;63019;51.080;13.642;2023-02-28T05:48:34;-2.20;99.90
74488;DHT22;63019;51.080;13.642;2023-02-28T05:49:36;-2.20;99.90
74488;DHT22;63019;51.080;13.642;2023-02-28T05:50:37;-2.20;99.90
74488;DHT22;63019;51.080;13.642;2023-02-28T05:51:39;-2.20;99.90
74488;DHT22;63019;51.080;13.642;2023-02-28T05:52:41;-2.20;99.90
74488;DHT22;63019;51.080;13.642;2023-02-28T05:53:43;-2.20;99.90
74488;DHT22;63019;51.080;13.642;2023-02-28T05:54:46;-2.20;99.90
74488;DHT22;63019;51.080;13.642;2023-02-28T05:55:48;-2.20;99.90
74488;DHT22;63019;51.080;13.642;2023-02-28T05:56:49;-2.20;99.90
74488;DHT22;63019;51.080;13.642;2023-02-28T05:57:51;-2.20;99.90
74488;DHT22;63019;51.080;13.642;2023-02-28T05:58:53;-2.20;99.90
74488;DHT22;63019;51.080;13.642;2023-02-28T05:59:55;-2.20;99.90
74488;DHT22;63019;51.080;13.642;2023-02-28T06:00:58;-2.20;99.90
74488;DHT22;63019;51.080;13.642;2023-02-28T06:02:00;-2.20;99.90
74488;DHT22;63019;51.080;13.642;2023-02-28T06:03:01;-2.20;99.90
74488;DHT22;63019;51.080;13.642;2023-02-28T06:04:05;-2.20;99.90
74488;DHT22;63019;51.080;13.642;2023-02-28T06:05:14;-2.20;99.90
74488;DHT22;63019;51.080;13.642;2023-02-28T06:06:16;-2.20;99.90
74488;DHT22;63019;51.080;13.642;2023-02-28T06:07:18;-2.30;99.90
74488;DHT22;63019;51.080;13.642;2023-02-28T06:08:19;-2.20;99.90
74488;DHT22;63019;51.080;13.642;2023-02-28T06:09:21;-2.20;99.90
74488;DHT22;63019;51.080;13.642;2023-02-28T06:10:23;-2.20;99.90
74488;DHT22;63019;51.080;13.642;2023-02-28T06:11:25;-2.30;99.90
74488;DHT22;63019;51.080;13.642;2023-02-28T06:12:29;-2.30;99.90
74488;DHT22;63019;51.080;13.642;2023-02-28T06:13:31;-2.30;99.90
74488;DHT22;63019;51.080;13.642;2023-02-28T06:14:33;-2.30;99.90
74488;DHT22;63019;51.080;13.642;2023-02-28T06:15:35;-2.30;99.90
74488;DHT22;63019;51.080;13.642;2023-02-28T06:16:37;-2.30;99.90
74488;DHT22;63019;51.080;13.642;2023-02-28T06:17:43;-2.30;99.90
74488;DHT22;63019;51.080;13.642;2023-02-28T06:18:44;-2.30;99.90
74488;DHT22;63019;51.080;13.642;2023-02-28T06:19:46;-2.40;99.90
74488;DHT22;63019;51.080;13.642;2023-02-28T06:20:53;-2.40;99.90
74488;DHT22;63019;51.080;13.642;2023-02-28T06:21:56;-2.30;99.90
74488;DHT22;63019;51.080;13.642;2023-02-28T06:22:58;-2.30;99.90
74488;DHT22;63019;51.080;13.642;2023-02-28T06:24:00;-2.30;99.90
74488;DHT22;63019;51.080;13.642;2023-02-28T06:25:04;-2.40;99.90
74488;DHT22;63019;51.080;13.642;2023-02-28T06:26:06;-2.40;99.90
74488;DHT22;63019;51.080;13.642;2023-02-28T06:27:08;-2.40;99.90
74488;DHT22;63019;51.080;13.642;2023-02-28T06:28:10;-2.40;99.90
74488;DHT22;63019;51.080;13.642;2023-02-28T06:29:12;-2.40;99.90
74488;DHT22;63019;51.080;13.642;2023-02-28T06:30:18;-2.30;99.90
74488;DHT22;63019;51.080;13.642;2023-02-28T06:31:21;-2.30;99.90
74488;DHT22;63019;51.080;13.642;2023-02-28T06:32:23;-2.30;99.90
74488;DHT22;63019;51.080;13.642;2023-02-28T06:33:25;-2.30;99.90
74488;DHT22;63019;51.080;13.642;2023-02-28T06:34:27;-2.30;99.90
74488;DHT22;63019;51.080;13.642;2023-02-28T06:35:29;-2.30;99.90
74488;DHT22;63019;51.080;13.642;2023-02-28T06:36:31;-2.30;99.90
74488;DHT22;63019;51.080;13.642;2023-02-28T06:37:33;-2.30;99.90
74488;DHT22;63019;51.080;13.642;2023-02-28T06:38:35;-2.30;99.90
74488;DHT22;63019;51.080;13.642;2023-02-28T06:39:36;-2.20;99.90
74488;DHT22;63019;51.080;13.642;2023-02-28T06:40:38;-2.20;99.90
74488;DHT22;63019;51.080;13.642;2023-02-28T06:41:40;-2.20;99.90
74488;DHT22;63019;51.080;13.642;2023-02-28T06:42:55;-2.20;99.90
74488;DHT22;63019;51.080;13.642;2023-02-28T06:43:57;-2.30;99.90
74488;DHT22;63019;51.080;13.642;2023-02-28T06:44:59;-2.20;99.90
74488;DHT22;63019;51.080;13.642;2023-02-28T06:46:02;-2.20;99.90
74488;DHT22;63019;51.080;13.642;2023-02-28T06:47:06;-2.10;99.90
74488;DHT22;63019;51.080;13.642;2023-02-28T06:48:07;-2.10;99.90
74488;DHT22;63019;51.080;13.642;2023-02-28T06:49:10;-2.10;99.90
74488;DHT22;63019;51.080;13.642;2023-02-28T06:50:12;-2.10;99.90
74488;DHT22;63019;51.080;13.642;2023-02-28T06:51:19;-2.00;99.90
74488;DHT22;63019;51.080;13.642;2023-02-28T06:52:23;-2.00;99.90
74488;DHT22;63019;51.080;13.642;2023-02-28T06:53:25;-2.00;99.90
74488;DHT22;63019;51.080;13.642;2023-02-28T06:54:27;-2.10;99.90
74488;DHT22;63019;51.080;13.642;2023-02-28T06:55:28;-2.00;99.90
74488;DHT22;63019;51.080;13.642;2023-02-28T06:56:31;-2.00;99.90
74488;DHT22;63019;51.080;13.642;2023-02-28T06:57:34;-2.00;99.90
74488;DHT22;63019;51.080;13.642;2023-02-28T06:58:37;-2.10;99.90
74488;DHT22;63019;51.080;13.642;2023-02-28T06:59:39;-2.10;99.90
74488;DHT22;63019;51.080;13.642;2023-02-28T07:00:42;-2.20;99.90
74488;DHT22;63019;51.080;13.642;2023-02-28T07:01:44;-2.20;99.90
74488;DHT22;63019;51.080;13.642;2023-02-28T07:02:45;-2.20;99.90
74488;DHT22;63019;51.080;13.642;2023-02-28T07:03:48;-2.20;99.90
74488;DHT22;63019;51.080;13.642;2023-02-28T07:04:53;-2.10;99.90
74488;DHT22;63019;51.080;13.642;2023-02-28T07:05:55;-2.10;99.90
74488;DHT22;63019;51.080;13.642;2023-02-28T07:06:57;-2.10;99.90
74488;DHT22;63019;51.080;13.642;2023-02-28T07:07:59;-2.10;99.90
74488;DHT22;63019;51.080;13.642;2023-02-28T07:09:01;-2.10;99.90
74488;DHT22;63019;51.080;13.642;2023-02-28T07:10:03;-2.10;99.90
74488;DHT22;63019;51.080;13.642;2023-02-28T07:11:05;-2.00;99.90
74488;DHT22;63019;51.080;13.642;2023-02-28T07:12:07;-2.00;99.90
74488;DHT22;63019;51.080;13.642;2023-02-28T07:13:09;-2.00;99.90
74488;DHT22;63019;51.080;13.642;2023-02-28T07:14:11;-2.00;99.90